DIGEL EDRY-EDVE
Flight info
| Callsign | DIGEL |
|---|---|
| Flight time | 1h 2m |
| Altitude | 5500 |
| Route | INBOS DCT ALOSI |
| Aircraft | BE9L/L-SBDFGRY/SB1 |
Departure
| Time | 2026-04-28 14:44 |
|---|---|
| Airport | Speyer Airfield (EDRY) |
Arrival
| Time | 2026-04-28 15:47 |
|---|---|
| Airport | Braunschweig-Wolfsburg Airport (EDVE) |
| Time | Latitude | Longitude | Altitude | Speed | Heading |
|---|---|---|---|---|---|
| 2026-04-28 14:36 | 49.30345 | 8.45404 | 310 ft | 0 kts | 255° |
| 2026-04-28 14:39 | 49.30340 | 8.45377 | 310 ft | 7 kts | 240° |
| 2026-04-28 14:40 | 49.30268 | 8.45385 | 310 ft | 14 kts | 163° |
| 2026-04-28 14:40 | 49.30245 | 8.45394 | 310 ft | 8 kts | 166° |
| 2026-04-28 14:40 | 49.30121 | 8.45444 | 310 ft | 15 kts | 162° |
| 2026-04-28 14:40 | 49.30020 | 8.45485 | 310 ft | 12 kts | 164° |
| 2026-04-28 14:41 | 49.29958 | 8.45511 | 310 ft | 7 kts | 165° |
| 2026-04-28 14:41 | 49.29913 | 8.45529 | 310 ft | 6 kts | 165° |
| 2026-04-28 14:41 | 49.29853 | 8.45552 | 310 ft | 11 kts | 166° |
| 2026-04-28 14:41 | 49.29765 | 8.45587 | 310 ft | 13 kts | 163° |
| 2026-04-28 14:42 | 49.29672 | 8.45626 | 310 ft | 14 kts | 165° |
| 2026-04-28 14:42 | 49.29597 | 8.45598 | 310 ft | 11 kts | 258° |
| 2026-04-28 14:42 | 49.29554 | 8.45551 | 310 ft | 9 kts | 176° |
| 2026-04-28 14:42 | 49.29494 | 8.45548 | 310 ft | 7 kts | 153° |
| 2026-04-28 14:43 | 49.29500 | 8.45574 | 310 ft | 2 kts | 332° |
| 2026-04-28 14:43 | 49.29504 | 8.45571 | 310 ft | 0 kts | 343° |
| 2026-04-28 14:43 | 49.29508 | 8.45569 | 310 ft | 12 kts | 343° |
| 2026-04-28 14:44 | 49.29941 | 8.45394 | 310 ft | 104 kts | 345° |
| 2026-04-28 14:44 | 49.30729 | 8.45044 | 622 ft | 123 kts | 346° |
| 2026-04-28 14:44 | 49.31550 | 8.44848 | 1155 ft | 125 kts | 18° |
| 2026-04-28 14:44 | 49.32077 | 8.45722 | 1681 ft | 123 kts | 89° |
| 2026-04-28 14:45 | 49.32017 | 8.46977 | 2344 ft | 123 kts | 81° |
| 2026-04-28 14:45 | 49.32252 | 8.48194 | 3021 ft | 121 kts | 64° |
| 2026-04-28 14:45 | 49.32676 | 8.49314 | 3575 ft | 126 kts | 60° |
| 2026-04-28 14:45 | 49.33001 | 8.50042 | 3954 ft | 127 kts | 54° |
| 2026-04-28 14:46 | 49.33732 | 8.51462 | 4675 ft | 132 kts | 54° |
| 2026-04-28 14:46 | 49.34348 | 8.52625 | 4986 ft | 151 kts | 53° |
| 2026-04-28 14:46 | 49.35060 | 8.53942 | 5263 ft | 166 kts | 52° |
| 2026-04-28 14:46 | 49.35827 | 8.55347 | 5537 ft | 177 kts | 52° |
| 2026-04-28 14:47 | 49.36644 | 8.56846 | 5589 ft | 192 kts | 52° |
| 2026-04-28 14:47 | 49.37522 | 8.58440 | 5595 ft | 200 kts | 51° |
| 2026-04-28 14:47 | 49.38434 | 8.60102 | 5599 ft | 204 kts | 52° |
| 2026-04-28 14:47 | 49.39360 | 8.61788 | 5606 ft | 208 kts | 52° |
| 2026-04-28 14:48 | 49.40288 | 8.63483 | 5598 ft | 210 kts | 51° |
| 2026-04-28 14:48 | 49.41226 | 8.65192 | 5606 ft | 211 kts | 52° |
| 2026-04-28 14:48 | 49.42172 | 8.66919 | 5604 ft | 212 kts | 52° |
| 2026-04-28 14:48 | 49.43121 | 8.68653 | 5611 ft | 212 kts | 52° |
| 2026-04-28 14:49 | 49.44070 | 8.70389 | 5618 ft | 213 kts | 52° |
| 2026-04-28 14:49 | 49.45025 | 8.72138 | 5607 ft | 213 kts | 52° |
| 2026-04-28 14:49 | 49.45970 | 8.73867 | 5617 ft | 213 kts | 52° |
| 2026-04-28 14:49 | 49.46925 | 8.75619 | 5622 ft | 213 kts | 52° |
| 2026-04-28 14:50 | 49.47884 | 8.77378 | 5601 ft | 214 kts | 52° |
| 2026-04-28 14:50 | 49.48835 | 8.79122 | 5606 ft | 214 kts | 52° |
| 2026-04-28 14:50 | 49.49791 | 8.80878 | 5597 ft | 214 kts | 52° |
| 2026-04-28 14:50 | 49.50748 | 8.82633 | 5594 ft | 214 kts | 52° |
| 2026-04-28 14:51 | 49.51693 | 8.84373 | 5597 ft | 214 kts | 52° |
| 2026-04-28 14:51 | 49.52650 | 8.86132 | 5592 ft | 214 kts | 52° |
| 2026-04-28 14:51 | 49.53604 | 8.87892 | 5595 ft | 213 kts | 52° |
| 2026-04-28 14:51 | 49.54543 | 8.89621 | 5612 ft | 213 kts | 52° |
| 2026-04-28 14:52 | 49.55493 | 8.91371 | 5597 ft | 213 kts | 52° |
| 2026-04-28 14:52 | 49.56453 | 8.93142 | 5582 ft | 214 kts | 52° |
| 2026-04-28 14:52 | 49.57402 | 8.94891 | 5588 ft | 213 kts | 52° |
| 2026-04-28 14:52 | 49.58344 | 8.96634 | 5591 ft | 213 kts | 52° |
| 2026-04-28 14:53 | 49.59296 | 8.98390 | 5592 ft | 213 kts | 52° |
| 2026-04-28 14:53 | 49.60240 | 9.00139 | 5587 ft | 213 kts | 52° |
| 2026-04-28 14:53 | 49.61190 | 9.01901 | 5590 ft | 213 kts | 52° |
| 2026-04-28 14:53 | 49.62134 | 9.03644 | 5590 ft | 213 kts | 52° |
| 2026-04-28 14:54 | 49.63076 | 9.05392 | 5589 ft | 213 kts | 52° |
| 2026-04-28 14:54 | 49.64020 | 9.07145 | 5588 ft | 213 kts | 52° |
| 2026-04-28 14:54 | 49.64968 | 9.08904 | 5586 ft | 213 kts | 52° |
| 2026-04-28 14:54 | 49.65918 | 9.10667 | 5584 ft | 213 kts | 52° |
| 2026-04-28 14:55 | 49.66871 | 9.12440 | 5584 ft | 213 kts | 52° |
| 2026-04-28 14:55 | 49.67805 | 9.14173 | 5584 ft | 213 kts | 52° |
| 2026-04-28 14:55 | 49.68760 | 9.15950 | 5585 ft | 213 kts | 52° |
| 2026-04-28 14:55 | 49.69704 | 9.17708 | 5584 ft | 213 kts | 52° |
| 2026-04-28 14:56 | 49.70646 | 9.19462 | 5580 ft | 213 kts | 52° |
| 2026-04-28 14:56 | 49.71577 | 9.21199 | 5578 ft | 212 kts | 52° |
| 2026-04-28 14:56 | 49.72529 | 9.22978 | 5579 ft | 212 kts | 52° |
| 2026-04-28 14:56 | 49.73472 | 9.24737 | 5583 ft | 212 kts | 52° |
| 2026-04-28 14:57 | 49.74411 | 9.26492 | 5584 ft | 212 kts | 52° |
| 2026-04-28 14:57 | 49.75032 | 9.27653 | 5585 ft | 212 kts | 52° |
| 2026-04-28 14:57 | 49.76291 | 9.30009 | 5589 ft | 212 kts | 52° |
| 2026-04-28 14:57 | 49.77219 | 9.31759 | 5600 ft | 212 kts | 52° |
| 2026-04-28 14:58 | 49.78159 | 9.33519 | 5580 ft | 213 kts | 52° |
| 2026-04-28 14:58 | 49.79109 | 9.35290 | 5594 ft | 212 kts | 52° |
| 2026-04-28 14:58 | 49.80040 | 9.37031 | 5593 ft | 212 kts | 52° |
| 2026-04-28 14:58 | 49.80978 | 9.38793 | 5593 ft | 212 kts | 52° |
| 2026-04-28 14:59 | 49.81919 | 9.40559 | 5595 ft | 212 kts | 52° |
| 2026-04-28 14:59 | 49.82851 | 9.42314 | 5599 ft | 212 kts | 52° |
| 2026-04-28 14:59 | 49.83788 | 9.44077 | 5599 ft | 212 kts | 52° |
| 2026-04-28 14:59 | 49.84726 | 9.45843 | 5596 ft | 212 kts | 52° |
| 2026-04-28 15:00 | 49.85662 | 9.47605 | 5596 ft | 213 kts | 52° |
| 2026-04-28 15:00 | 49.86601 | 9.49373 | 5596 ft | 213 kts | 52° |
| 2026-04-28 15:00 | 49.87542 | 9.51151 | 5594 ft | 213 kts | 52° |
| 2026-04-28 15:00 | 49.88484 | 9.52927 | 5593 ft | 213 kts | 52° |
| 2026-04-28 15:01 | 49.89415 | 9.54684 | 5596 ft | 212 kts | 52° |
| 2026-04-28 15:01 | 49.90355 | 9.56460 | 5601 ft | 212 kts | 52° |
| 2026-04-28 15:01 | 49.91289 | 9.58227 | 5603 ft | 212 kts | 53° |
| 2026-04-28 15:01 | 49.92217 | 9.59984 | 5609 ft | 212 kts | 52° |
| 2026-04-28 15:02 | 49.93157 | 9.61731 | 5609 ft | 213 kts | 48° |
| 2026-04-28 15:02 | 49.94489 | 9.62730 | 5602 ft | 222 kts | 10° |
| 2026-04-28 15:02 | 49.96017 | 9.62956 | 5624 ft | 221 kts | 12° |
| 2026-04-28 15:02 | 49.97554 | 9.63269 | 5614 ft | 222 kts | 10° |
| 2026-04-28 15:03 | 49.99083 | 9.63563 | 5615 ft | 222 kts | 11° |
| 2026-04-28 15:03 | 50.00625 | 9.63867 | 5619 ft | 222 kts | 11° |
| 2026-04-28 15:03 | 50.02166 | 9.64177 | 5618 ft | 223 kts | 11° |
| 2026-04-28 15:03 | 50.03684 | 9.64482 | 5613 ft | 223 kts | 11° |
| 2026-04-28 15:04 | 50.05217 | 9.64791 | 5614 ft | 223 kts | 11° |
| 2026-04-28 15:04 | 50.06758 | 9.65103 | 5614 ft | 223 kts | 12° |
| 2026-04-28 15:04 | 50.08297 | 9.65416 | 5615 ft | 223 kts | 12° |
| 2026-04-28 15:04 | 50.09840 | 9.65730 | 5624 ft | 223 kts | 12° |
| 2026-04-28 15:05 | 50.11383 | 9.66042 | 5624 ft | 223 kts | 12° |
| 2026-04-28 15:05 | 50.12909 | 9.66353 | 5634 ft | 223 kts | 12° |
| 2026-04-28 15:05 | 50.14446 | 9.66665 | 5634 ft | 223 kts | 12° |
| 2026-04-28 15:05 | 50.15993 | 9.66981 | 5629 ft | 223 kts | 12° |
| 2026-04-28 15:06 | 50.17536 | 9.67295 | 5636 ft | 223 kts | 12° |
| 2026-04-28 15:06 | 50.19069 | 9.67606 | 5637 ft | 223 kts | 12° |
| 2026-04-28 15:06 | 50.20591 | 9.67918 | 5641 ft | 223 kts | 12° |
| 2026-04-28 15:06 | 50.22138 | 9.68234 | 5639 ft | 221 kts | 12° |
| 2026-04-28 15:07 | 50.23645 | 9.68540 | 5804 ft | 212 kts | 12° |
| 2026-04-28 15:07 | 50.25043 | 9.68814 | 6284 ft | 198 kts | 12° |
| 2026-04-28 15:07 | 50.26381 | 9.69093 | 6741 ft | 193 kts | 12° |
| 2026-04-28 15:07 | 50.27699 | 9.69365 | 7132 ft | 193 kts | 11° |
| 2026-04-28 15:08 | 50.29035 | 9.69642 | 7484 ft | 195 kts | 11° |
| 2026-04-28 15:08 | 50.30374 | 9.69917 | 7818 ft | 196 kts | 11° |
| 2026-04-28 15:08 | 50.31743 | 9.70199 | 8156 ft | 197 kts | 10° |
| 2026-04-28 15:08 | 50.33089 | 9.70477 | 8491 ft | 198 kts | 10° |
| 2026-04-28 15:09 | 50.34476 | 9.70760 | 8792 ft | 201 kts | 9° |
| 2026-04-28 15:09 | 50.35861 | 9.71046 | 9037 ft | 204 kts | 9° |
| 2026-04-28 15:09 | 50.37275 | 9.71336 | 9285 ft | 206 kts | 9° |
| 2026-04-28 15:09 | 50.38220 | 9.71530 | 9457 ft | 208 kts | 9° |
| 2026-04-28 15:10 | 50.40178 | 9.71936 | 9662 ft | 218 kts | 9° |
| 2026-04-28 15:10 | 50.41700 | 9.72250 | 9659 ft | 229 kts | 9° |
| 2026-04-28 15:10 | 50.43306 | 9.72582 | 9652 ft | 233 kts | 8° |
| 2026-04-28 15:10 | 50.44929 | 9.72913 | 9654 ft | 235 kts | 9° |
| 2026-04-28 15:11 | 50.46544 | 9.73246 | 9656 ft | 236 kts | 9° |
| 2026-04-28 15:11 | 50.48174 | 9.73581 | 9652 ft | 236 kts | 9° |
| 2026-04-28 15:11 | 50.49796 | 9.73919 | 9656 ft | 236 kts | 9° |
| 2026-04-28 15:11 | 50.51365 | 9.74620 | 9655 ft | 235 kts | 22° |
| 2026-04-28 15:12 | 50.52905 | 9.75484 | 9661 ft | 236 kts | 20° |
| 2026-04-28 15:12 | 50.54459 | 9.76356 | 9664 ft | 236 kts | 21° |
| 2026-04-28 15:12 | 50.55996 | 9.77213 | 9660 ft | 236 kts | 21° |
| 2026-04-28 15:12 | 50.57546 | 9.78078 | 9653 ft | 236 kts | 21° |
| 2026-04-28 15:13 | 50.59096 | 9.78944 | 9667 ft | 236 kts | 21° |
| 2026-04-28 15:13 | 50.60640 | 9.79807 | 9669 ft | 236 kts | 21° |
| 2026-04-28 15:13 | 50.62179 | 9.80668 | 9665 ft | 236 kts | 20° |
| 2026-04-28 15:13 | 50.63721 | 9.81531 | 9668 ft | 236 kts | 20° |
| 2026-04-28 15:14 | 50.65261 | 9.82394 | 9673 ft | 236 kts | 20° |
| 2026-04-28 15:14 | 50.66804 | 9.83256 | 9675 ft | 236 kts | 20° |
| 2026-04-28 15:14 | 50.68346 | 9.84122 | 9679 ft | 236 kts | 20° |
| 2026-04-28 15:14 | 50.69891 | 9.84988 | 9681 ft | 236 kts | 20° |
| 2026-04-28 15:15 | 50.71440 | 9.85856 | 9676 ft | 236 kts | 20° |
| 2026-04-28 15:15 | 50.72483 | 9.86442 | 9677 ft | 236 kts | 20° |
| 2026-04-28 15:15 | 50.74551 | 9.87603 | 9676 ft | 236 kts | 20° |
| 2026-04-28 15:15 | 50.76082 | 9.88464 | 9675 ft | 236 kts | 20° |
| 2026-04-28 15:16 | 50.77621 | 9.89329 | 9685 ft | 234 kts | 21° |
| 2026-04-28 15:16 | 50.79156 | 9.90195 | 9689 ft | 234 kts | 20° |
| 2026-04-28 15:16 | 50.80684 | 9.91055 | 9673 ft | 235 kts | 21° |
| 2026-04-28 15:16 | 50.82223 | 9.91925 | 9689 ft | 235 kts | 21° |
| 2026-04-28 15:17 | 50.83761 | 9.92791 | 9698 ft | 235 kts | 20° |
| 2026-04-28 15:17 | 50.85316 | 9.93672 | 9692 ft | 236 kts | 20° |
| 2026-04-28 15:17 | 50.86848 | 9.94538 | 9696 ft | 236 kts | 20° |
| 2026-04-28 15:17 | 50.88404 | 9.95418 | 9690 ft | 236 kts | 20° |
| 2026-04-28 15:18 | 50.89933 | 9.96283 | 9691 ft | 236 kts | 20° |
| 2026-04-28 15:18 | 50.91485 | 9.97162 | 9692 ft | 236 kts | 20° |
| 2026-04-28 15:18 | 50.93028 | 9.98036 | 9699 ft | 236 kts | 20° |
| 2026-04-28 15:18 | 50.94571 | 9.98912 | 9700 ft | 236 kts | 20° |
| 2026-04-28 15:19 | 50.96105 | 9.99783 | 9703 ft | 235 kts | 20° |
| 2026-04-28 15:19 | 50.97662 | 10.00666 | 9701 ft | 235 kts | 20° |
| 2026-04-28 15:19 | 50.99204 | 10.01540 | 9703 ft | 235 kts | 20° |
| 2026-04-28 15:19 | 51.00730 | 10.02407 | 9707 ft | 235 kts | 20° |
| 2026-04-28 15:20 | 51.02266 | 10.03280 | 9706 ft | 235 kts | 20° |
| 2026-04-28 15:20 | 51.03815 | 10.04162 | 9703 ft | 236 kts | 20° |
| 2026-04-28 15:20 | 51.05359 | 10.04994 | 9719 ft | 235 kts | 12° |
| 2026-04-28 15:20 | 51.06854 | 10.04181 | 9604 ft | 245 kts | 309° |
| 2026-04-28 15:21 | 51.06998 | 10.01617 | 9735 ft | 243 kts | 243° |
| 2026-04-28 15:21 | 51.05632 | 10.00297 | 9702 ft | 242 kts | 176° |
| 2026-04-28 15:21 | 51.04364 | 10.01699 | 9749 ft | 234 kts | 111° |
| 2026-04-28 15:21 | 51.04651 | 10.04107 | 9645 ft | 234 kts | 44° |
| 2026-04-28 15:22 | 51.06107 | 10.05175 | 9623 ft | 234 kts | 29° |
| 2026-04-28 15:22 | 51.06769 | 10.07343 | 9786 ft | 229 kts | 96° |
| 2026-04-28 15:22 | 51.05833 | 10.09300 | 9657 ft | 243 kts | 160° |
| 2026-04-28 15:22 | 51.04255 | 10.08679 | 9660 ft | 246 kts | 226° |
| 2026-04-28 15:23 | 51.03941 | 10.06196 | 9644 ft | 242 kts | 294° |
| 2026-04-28 15:23 | 51.05224 | 10.04737 | 9669 ft | 235 kts | 1° |
| 2026-04-28 15:23 | 51.06686 | 10.05696 | 9648 ft | 233 kts | 34° |
| 2026-04-28 15:23 | 51.08156 | 10.06700 | 9711 ft | 232 kts | 19° |
| 2026-04-28 15:24 | 51.09696 | 10.07539 | 9695 ft | 233 kts | 19° |
| 2026-04-28 15:24 | 51.11228 | 10.08376 | 9708 ft | 234 kts | 21° |
| 2026-04-28 15:24 | 51.12770 | 10.09272 | 9712 ft | 234 kts | 20° |
| 2026-04-28 15:24 | 51.14294 | 10.10151 | 9718 ft | 234 kts | 20° |
| 2026-04-28 15:25 | 51.15816 | 10.11025 | 9719 ft | 234 kts | 20° |
| 2026-04-28 15:25 | 51.17350 | 10.11903 | 9717 ft | 234 kts | 20° |
| 2026-04-28 15:25 | 51.18879 | 10.12778 | 9717 ft | 234 kts | 20° |
| 2026-04-28 15:25 | 51.20415 | 10.13659 | 9719 ft | 234 kts | 20° |
| 2026-04-28 15:26 | 51.21939 | 10.14533 | 9719 ft | 234 kts | 20° |
| 2026-04-28 15:26 | 51.23475 | 10.15417 | 9717 ft | 234 kts | 21° |
| 2026-04-28 15:26 | 51.25000 | 10.16295 | 9718 ft | 234 kts | 20° |
| 2026-04-28 15:26 | 51.26529 | 10.17176 | 9717 ft | 234 kts | 20° |
| 2026-04-28 15:27 | 51.28067 | 10.18062 | 9718 ft | 234 kts | 20° |
| 2026-04-28 15:27 | 51.29576 | 10.18932 | 9724 ft | 234 kts | 20° |
| 2026-04-28 15:27 | 51.31117 | 10.19821 | 9732 ft | 233 kts | 20° |
| 2026-04-28 15:27 | 51.32628 | 10.20695 | 9729 ft | 233 kts | 20° |
| 2026-04-28 15:28 | 51.34152 | 10.21575 | 9726 ft | 233 kts | 20° |
| 2026-04-28 15:28 | 51.35692 | 10.22464 | 9724 ft | 233 kts | 20° |
| 2026-04-28 15:28 | 51.37196 | 10.23334 | 9726 ft | 233 kts | 20° |
| 2026-04-28 15:28 | 51.38726 | 10.24220 | 9730 ft | 233 kts | 20° |
| 2026-04-28 15:29 | 51.40252 | 10.25103 | 9728 ft | 233 kts | 20° |
| 2026-04-28 15:29 | 51.41761 | 10.25977 | 9732 ft | 232 kts | 20° |
| 2026-04-28 15:29 | 51.43287 | 10.26860 | 9735 ft | 232 kts | 20° |
| 2026-04-28 15:29 | 51.44791 | 10.27732 | 9736 ft | 232 kts | 20° |
| 2026-04-28 15:30 | 51.46327 | 10.28624 | 9734 ft | 232 kts | 20° |
| 2026-04-28 15:30 | 51.47835 | 10.29502 | 9736 ft | 232 kts | 20° |
| 2026-04-28 15:30 | 51.49341 | 10.30380 | 9740 ft | 232 kts | 20° |
| 2026-04-28 15:30 | 51.50866 | 10.31269 | 9746 ft | 232 kts | 20° |
| 2026-04-28 15:31 | 51.52368 | 10.32145 | 9745 ft | 232 kts | 20° |
| 2026-04-28 15:31 | 51.53894 | 10.33034 | 9746 ft | 231 kts | 20° |
| 2026-04-28 15:31 | 51.55407 | 10.33916 | 9743 ft | 231 kts | 20° |
| 2026-04-28 15:31 | 51.56898 | 10.34785 | 9740 ft | 231 kts | 20° |
| 2026-04-28 15:32 | 51.58424 | 10.35677 | 9742 ft | 231 kts | 20° |
| 2026-04-28 15:32 | 51.59450 | 10.36138 | 9740 ft | 232 kts | 11° |
| 2026-04-28 15:32 | 51.61570 | 10.36679 | 9747 ft | 231 kts | 11° |
| 2026-04-28 15:32 | 51.63153 | 10.37098 | 9743 ft | 231 kts | 10° |
| 2026-04-28 15:33 | 51.64750 | 10.37528 | 9743 ft | 232 kts | 10° |
| 2026-04-28 15:33 | 51.66318 | 10.37947 | 9746 ft | 231 kts | 10° |
| 2026-04-28 15:33 | 51.67923 | 10.38381 | 9746 ft | 231 kts | 10° |
| 2026-04-28 15:33 | 51.69492 | 10.38805 | 9740 ft | 231 kts | 10° |
| 2026-04-28 15:34 | 51.71083 | 10.39235 | 9738 ft | 231 kts | 10° |
| 2026-04-28 15:34 | 51.72659 | 10.39661 | 9736 ft | 231 kts | 10° |
| 2026-04-28 15:34 | 51.74260 | 10.40093 | 9732 ft | 231 kts | 10° |
| 2026-04-28 15:34 | 51.75836 | 10.40518 | 9730 ft | 231 kts | 10° |
| 2026-04-28 15:35 | 51.77415 | 10.40946 | 9731 ft | 231 kts | 10° |
| 2026-04-28 15:35 | 51.80575 | 10.41801 | 9345 ft | 226 kts | 10° |
| 2026-04-28 15:35 | 51.82089 | 10.42207 | 9038 ft | 216 kts | 11° |
| 2026-04-28 15:36 | 51.83529 | 10.42596 | 8765 ft | 210 kts | 11° |
| 2026-04-28 15:36 | 51.84949 | 10.42981 | 8455 ft | 206 kts | 11° |
| 2026-04-28 15:36 | 51.86351 | 10.43361 | 8173 ft | 203 kts | 11° |
| 2026-04-28 15:36 | 51.87754 | 10.43454 | 7907 ft | 201 kts | 358° |
| 2026-04-28 15:37 | 51.89147 | 10.43307 | 7646 ft | 199 kts | 359° |
| 2026-04-28 15:37 | 51.90504 | 10.43165 | 7392 ft | 198 kts | 359° |
| 2026-04-28 15:37 | 51.91868 | 10.43062 | 7135 ft | 196 kts | 2° |
| 2026-04-28 15:37 | 51.92791 | 10.43044 | 6961 ft | 196 kts | 2° |
| 2026-04-28 15:38 | 51.94609 | 10.42992 | 6630 ft | 201 kts | 2° |
| 2026-04-28 15:38 | 51.96016 | 10.42955 | 6378 ft | 204 kts | 2° |
| 2026-04-28 15:38 | 51.97441 | 10.42916 | 6126 ft | 206 kts | 2° |
| 2026-04-28 15:38 | 51.98878 | 10.42873 | 5872 ft | 207 kts | 2° |
| 2026-04-28 15:39 | 52.00323 | 10.42826 | 5616 ft | 208 kts | 2° |
| 2026-04-28 15:39 | 52.01760 | 10.42774 | 5363 ft | 208 kts | 2° |
| 2026-04-28 15:39 | 52.03209 | 10.42707 | 5108 ft | 208 kts | 2° |
| 2026-04-28 15:39 | 52.04647 | 10.42632 | 4890 ft | 207 kts | 2° |
| 2026-04-28 15:40 | 52.06075 | 10.42543 | 4685 ft | 205 kts | 2° |
| 2026-04-28 15:40 | 52.07503 | 10.42446 | 4479 ft | 204 kts | 2° |
| 2026-04-28 15:40 | 52.08921 | 10.42347 | 4274 ft | 204 kts | 2° |
| 2026-04-28 15:40 | 52.10326 | 10.42245 | 4070 ft | 203 kts | 2° |
| 2026-04-28 15:41 | 52.11728 | 10.42209 | 3870 ft | 202 kts | 4° |
| 2026-04-28 15:41 | 52.13140 | 10.42184 | 3666 ft | 201 kts | 4° |
| 2026-04-28 15:41 | 52.14538 | 10.42161 | 3461 ft | 201 kts | 4° |
| 2026-04-28 15:41 | 52.15923 | 10.42134 | 3260 ft | 201 kts | 4° |
| 2026-04-28 15:42 | 52.17304 | 10.42246 | 3058 ft | 198 kts | 9° |
| 2026-04-28 15:42 | 52.18684 | 10.42418 | 2856 ft | 199 kts | 8° |
| 2026-04-28 15:42 | 52.20054 | 10.42588 | 2655 ft | 199 kts | 9° |
| 2026-04-28 15:42 | 52.21403 | 10.42761 | 2404 ft | 189 kts | 10° |
| 2026-04-28 15:43 | 52.22649 | 10.43170 | 2171 ft | 174 kts | 23° |
| 2026-04-28 15:43 | 52.23773 | 10.43944 | 1948 ft | 177 kts | 28° |
| 2026-04-28 15:43 | 52.24855 | 10.44750 | 1843 ft | 168 kts | 28° |
| 2026-04-28 15:43 | 52.25837 | 10.45461 | 1788 ft | 136 kts | 28° |
| 2026-04-28 15:44 | 52.26673 | 10.46010 | 1641 ft | 128 kts | 27° |
| 2026-04-28 15:44 | 52.27510 | 10.46524 | 1514 ft | 128 kts | 25° |
| 2026-04-28 15:44 | 52.28353 | 10.47071 | 1412 ft | 134 kts | 25° |
| 2026-04-28 15:44 | 52.29212 | 10.47642 | 1427 ft | 131 kts | 24° |
| 2026-04-28 15:45 | 52.30046 | 10.48213 | 1351 ft | 135 kts | 26° |
| 2026-04-28 15:45 | 52.30848 | 10.48837 | 1165 ft | 123 kts | 41° |
| 2026-04-28 15:45 | 52.31380 | 10.49782 | 955 ft | 110 kts | 63° |
| 2026-04-28 15:45 | 52.31627 | 10.50928 | 755 ft | 108 kts | 81° |
| 2026-04-28 15:46 | 52.31669 | 10.52143 | 619 ft | 104 kts | 81° |
| 2026-04-28 15:46 | 52.31782 | 10.53320 | 479 ft | 107 kts | 84° |
| 2026-04-28 15:46 | 52.31849 | 10.54506 | 310 ft | 103 kts | 85° |
| 2026-04-28 15:46 | 52.31907 | 10.55558 | 276 ft | 67 kts | 84° |
| 2026-04-28 15:47 | 52.31941 | 10.56054 | 280 ft | 42 kts | 86° |
| 2026-04-28 15:47 | 52.31921 | 10.56389 | 286 ft | 21 kts | 164° |
| 2026-04-28 15:47 | 52.31864 | 10.56397 | 285 ft | 0 kts | 178° |
| 2026-04-28 15:48 | 52.31858 | 10.56397 | 285 ft | 3 kts | 178° |
| 2026-04-28 15:48 | 52.31797 | 10.56390 | 283 ft | 13 kts | 204° |
| 2026-04-28 15:49 | 52.31776 | 10.56300 | 282 ft | 11 kts | 260° |
| 2026-04-28 15:49 | 52.31744 | 10.56213 | 280 ft | 8 kts | 175° |
| 2026-04-28 15:49 | 52.31706 | 10.56235 | 281 ft | 5 kts | 78° |
| 2026-04-28 15:49 | 52.31707 | 10.56246 | 281 ft | 0 kts | 86° |